createdAt,value
2019-05-22T00:02:25.437Z,23.13
2019-05-22T00:04:58.339Z,24.90
2019-05-22T00:07:32.083Z,24.50
2019-05-22T00:10:02.538Z,24.83
2019-05-22T00:12:46.030Z,22.93
2019-05-22T00:15:11.835Z,23.93
2019-05-22T00:17:45.846Z,22.83
2019-05-22T00:20:16.337Z,23.27
2019-05-22T00:22:51.178Z,22.47
2019-05-22T00:25:25.651Z,22.93
2019-05-22T00:27:56.731Z,23.80
2019-05-22T00:30:28.941Z,22.73
2019-05-22T00:33:00.551Z,22.47
2019-05-22T00:35:31.480Z,22.07
2019-05-22T00:38:03.520Z,23.43
2019-05-22T00:40:38.044Z,22.10
2019-05-22T00:43:13.770Z,20.23
2019-05-22T00:45:42.760Z,20.90
2019-05-22T00:48:16.341Z,21.63
2019-05-22T00:50:54.539Z,21.17
2019-05-22T00:53:29.237Z,21.03
2019-05-22T00:56:05.521Z,20.20
2019-05-22T00:58:41.128Z,20.30
2019-05-22T01:01:16.633Z,20.07
2019-05-22T01:03:48.576Z,20.20
2019-05-22T01:06:21.547Z,18.87
2019-05-22T01:08:52.804Z,19.60
2019-05-22T01:11:29.579Z,19.33
2019-05-22T01:14:02.195Z,19.83
2019-05-22T01:16:32.960Z,19.50
2019-05-22T01:19:05.846Z,19.63
2019-05-22T01:21:37.541Z,18.17
2019-05-22T01:24:07.833Z,19.07
2019-05-22T01:26:39.508Z,20.30
2019-05-22T01:29:11.562Z,19.37
2019-05-22T01:31:44.744Z,19.13
2019-05-22T01:34:16.425Z,19.53
2019-05-22T01:36:48.338Z,20.30
2019-05-22T01:39:27.279Z,20.10
2019-05-22T01:42:00.769Z,19.43
2019-05-22T01:44:36.014Z,19.63
2019-05-22T01:47:13.545Z,18.20
2019-05-22T01:49:51.104Z,19.10
2019-05-22T01:52:23.239Z,19.27
2019-05-22T01:54:55.332Z,18.27
2019-05-22T01:57:28.582Z,17.57
2019-05-22T01:59:59.165Z,17.77
2019-05-22T02:02:30.553Z,17.63
2019-05-22T02:05:01.921Z,17.40
2019-05-22T02:07:35.011Z,16.97
2019-05-22T02:10:10.818Z,16.17
2019-05-22T02:12:52.723Z,16.33
2019-05-22T02:15:24.952Z,15.57
2019-05-22T02:17:56.596Z,16.13
2019-05-22T02:20:29.014Z,15.30
2019-05-22T02:22:59.904Z,15.23
2019-05-22T02:25:32.655Z,16.47
2019-05-22T02:28:04.041Z,16.33
2019-05-22T02:30:38.647Z,14.80
2019-05-22T02:33:13.332Z,17.10
2019-05-22T02:35:43.407Z,17.40
2019-05-22T02:38:16.866Z,17.80
2019-05-22T02:40:51.804Z,16.80
2019-05-22T02:43:24.643Z,16.23
2019-05-22T02:45:54.811Z,17.23
2019-05-22T02:48:28.242Z,17.80
2019-05-22T02:51:02.835Z,17.17
2019-05-22T02:53:33.403Z,16.90
2019-05-22T02:56:04.012Z,16.33
2019-05-22T02:58:34.678Z,16.47
2019-05-22T03:01:06.550Z,16.13
2019-05-22T03:03:37.568Z,15.10
2019-05-22T03:06:14.159Z,14.97
2019-05-22T03:09:01.000Z,15.97
2019-05-22T03:11:43.847Z,15.87
2019-05-22T03:14:15.876Z,15.87
2019-05-22T03:16:52.044Z,15.87
2019-05-22T03:19:47.961Z,14.73
2019-05-22T03:22:21.462Z,15.80
2019-05-22T03:25:01.983Z,15.30
2019-05-22T03:27:40.411Z,16.03
2019-05-22T03:30:25.807Z,15.10
2019-05-22T03:33:01.199Z,15.23
2019-05-22T03:35:34.805Z,16.17
2019-05-22T03:38:08.535Z,15.90
2019-05-22T03:40:39.523Z,16.80
2019-05-22T03:43:18.528Z,15.90
2019-05-22T03:45:50.689Z,15.77
2019-05-22T03:48:22.672Z,15.57
2019-05-22T03:50:59.783Z,15.67
2019-05-22T03:53:31.777Z,15.97
2019-05-22T03:56:03.060Z,15.23
2019-05-22T03:58:34.668Z,15.40
2019-05-22T04:01:06.895Z,15.77
2019-05-22T04:03:37.040Z,15.30
2019-05-22T04:06:08.606Z,16.77
2019-05-22T04:08:42.527Z,15.53
2019-05-22T04:11:14.541Z,17.27
2019-05-22T04:13:47.765Z,17.00
2019-05-22T04:16:19.517Z,16.73
2019-05-22T04:18:51.258Z,15.90
2019-05-22T04:21:21.664Z,17.33
2019-05-22T04:23:52.051Z,16.67
2019-05-22T04:26:24.027Z,16.20
2019-05-22T04:28:55.865Z,16.77
2019-05-22T04:31:34.807Z,15.80
2019-05-22T04:34:05.612Z,15.10
2019-05-22T04:36:36.965Z,15.83
2019-05-22T04:39:12.241Z,15.53
2019-05-22T04:41:44.061Z,14.43
2019-05-22T04:44:16.283Z,14.70
2019-05-22T04:46:47.852Z,14.73
2019-05-22T04:49:18.563Z,15.20
2019-05-22T04:51:49.033Z,15.27
2019-05-22T04:54:19.609Z,15.90
2019-05-22T04:56:49.877Z,15.33
2019-05-22T04:59:20.480Z,15.67
2019-05-22T05:01:51.148Z,15.53
2019-05-22T05:04:22.875Z,15.33
2019-05-22T05:06:53.918Z,14.63
2019-05-22T05:09:24.645Z,14.43
2019-05-22T05:11:55.258Z,14.83
2019-05-22T05:14:25.389Z,13.60
2019-05-22T05:16:55.853Z,13.00
2019-05-22T05:19:26.401Z,14.47
2019-05-22T05:21:57.049Z,14.03
2019-05-22T05:24:27.656Z,13.70
2019-05-22T05:27:01.967Z,13.63
2019-05-22T05:29:35.057Z,13.93
2019-05-22T05:32:05.909Z,13.50
2019-05-22T05:34:48.014Z,14.47
2019-05-22T05:37:20.218Z,13.70
2019-05-22T05:40:12.425Z,12.40
2019-05-22T05:42:42.660Z,13.73
2019-05-22T05:45:15.289Z,12.70
2019-05-22T05:47:45.960Z,12.83
2019-05-22T05:50:16.630Z,12.70
2019-05-22T05:52:47.316Z,12.27
2019-05-22T05:55:17.707Z,13.40
2019-05-22T05:57:51.161Z,12.30
2019-05-22T06:00:28.242Z,13.67
2019-05-22T06:03:29.115Z,13.17
2019-05-22T06:06:04.702Z,13.37
2019-05-22T06:08:34.926Z,13.43
2019-05-22T06:11:34.497Z,12.17
2019-05-22T06:14:11.948Z,11.63
2019-05-22T06:16:51.119Z,12.30
2019-05-22T06:19:22.459Z,11.50
2019-05-22T06:21:53.485Z,10.73
2019-05-22T06:24:33.150Z,10.50
2019-05-22T06:27:10.911Z,10.33
2019-05-22T06:29:44.867Z,9.33
2019-05-22T06:32:34.618Z,10.57
2019-05-22T06:35:07.778Z,9.50
2019-05-22T06:37:53.046Z,9.73
2019-05-22T06:40:23.776Z,8.53
2019-05-22T06:43:24.690Z,8.77
2019-05-22T06:45:55.620Z,9.00
2019-05-22T06:48:25.755Z,8.30
2019-05-22T06:50:57.110Z,9.10
2019-05-22T06:53:27.296Z,8.87
2019-05-22T06:55:59.033Z,9.10
2019-05-22T06:58:29.335Z,9.30
2019-05-22T07:00:59.900Z,9.00
2019-05-22T07:03:30.905Z,9.27
2019-05-22T07:06:02.894Z,9.67
2019-05-22T07:08:33.257Z,9.57
2019-05-22T07:11:03.278Z,9.00
2019-05-22T07:13:34.222Z,9.53
2019-05-22T07:16:06.126Z,9.27
2019-05-22T07:18:36.369Z,9.70
2019-05-22T07:21:06.718Z,9.27
2019-05-22T07:23:39.609Z,8.93
2019-05-22T07:26:10.489Z,9.43
2019-05-22T07:28:41.280Z,9.90
2019-05-22T07:31:11.918Z,9.53
2019-05-22T07:33:42.257Z,8.83
2019-05-22T07:36:16.792Z,9.27
2019-05-22T07:38:45.426Z,8.73
2019-05-22T07:41:15.897Z,8.83
2019-05-22T07:43:47.569Z,8.93
2019-05-22T07:46:19.480Z,8.80
2019-05-22T07:48:49.739Z,9.60
2019-05-22T07:51:21.517Z,9.27
2019-05-22T07:53:51.756Z,8.70
2019-05-22T07:56:23.076Z,9.37
2019-05-22T07:58:54.454Z,9.63
2019-05-22T08:01:24.694Z,9.40
2019-05-22T08:03:57.443Z,9.63
2019-05-22T08:06:29.520Z,8.77
2019-05-22T08:09:00.380Z,8.33
2019-05-22T08:11:31.313Z,8.60
2019-05-22T08:14:02.095Z,8.47
2019-05-22T08:16:32.521Z,9.40
2019-05-22T08:19:03.069Z,9.17
2019-05-22T08:21:33.412Z,9.50
2019-05-22T08:24:04.203Z,9.43
2019-05-22T08:26:53.220Z,9.83
2019-05-22T08:29:09.864Z,9.10
2019-05-22T08:31:41.536Z,9.40
2019-05-22T08:34:11.833Z,9.07
2019-05-22T08:36:42.086Z,8.63
2019-05-22T08:39:14.040Z,9.20
2019-05-22T08:41:44.918Z,8.90
2019-05-22T08:44:17.493Z,9.27
2019-05-22T08:46:47.747Z,10.10
2019-05-22T08:49:18.313Z,9.90
2019-05-22T08:51:49.661Z,10.23
2019-05-22T08:54:20.221Z,10.30
2019-05-22T08:56:51.543Z,10.83
2019-05-22T08:59:25.271Z,10.13
2019-05-22T09:01:57.218Z,10.90
2019-05-22T09:04:27.418Z,10.03
2019-05-22T09:06:58.946Z,11.07
2019-05-22T09:09:29.317Z,11.13
2019-05-22T09:12:02.297Z,11.53
2019-05-22T09:14:35.715Z,10.70
2019-05-22T09:17:07.569Z,10.30
2019-05-22T09:19:37.949Z,10.67
2019-05-22T09:22:09.011Z,10.83
2019-05-22T09:24:39.123Z,10.47
2019-05-22T09:27:11.533Z,9.67
2019-05-22T09:29:43.220Z,10.50
2019-05-22T09:32:13.341Z,9.90
2019-05-22T09:34:44.574Z,10.33
2019-05-22T09:37:21.839Z,10.60
2019-05-22T09:39:47.340Z,9.53
2019-05-22T09:42:18.449Z,9.13
2019-05-22T09:44:48.772Z,9.03
2019-05-22T09:47:23.710Z,9.50
2019-05-22T09:49:53.853Z,9.43
2019-05-22T09:52:24.254Z,9.03
2019-05-22T09:54:54.679Z,8.50
2019-05-22T09:57:25.899Z,8.37
2019-05-22T09:59:57.670Z,8.80
2019-05-22T10:02:30.964Z,9.20
2019-05-22T10:05:01.272Z,9.53
2019-05-22T10:07:32.961Z,9.17
2019-05-22T10:10:04.001Z,8.60
2019-05-22T10:12:34.439Z,8.63
2019-05-22T10:15:08.256Z,8.90
2019-05-22T10:17:42.369Z,8.20
2019-05-22T10:20:13.651Z,9.17
2019-05-22T10:22:43.855Z,9.20
2019-05-22T10:25:17.173Z,9.33
2019-05-22T10:27:49.978Z,10.53
2019-05-22T10:30:23.418Z,10.73
2019-05-22T10:32:53.519Z,12.37
2019-05-22T10:35:26.867Z,12.13
2019-05-22T10:37:57.732Z,12.10
2019-05-22T10:40:28.341Z,11.77
2019-05-22T10:42:58.446Z,10.20
2019-05-22T10:45:28.749Z,9.87
2019-05-22T10:47:59.002Z,9.47
2019-05-22T10:50:29.925Z,8.77
2019-05-22T10:53:00.246Z,9.13
2019-05-22T10:55:31.944Z,8.40
2019-05-22T10:58:02.346Z,8.60
2019-05-22T11:00:33.137Z,8.60
2019-05-22T11:03:04.341Z,7.23
2019-05-22T11:05:35.212Z,7.90
2019-05-22T11:08:06.601Z,7.70
2019-05-22T11:10:36.979Z,7.53
2019-05-22T11:13:07.553Z,6.83
2019-05-22T11:15:37.789Z,6.93
2019-05-22T11:18:08.189Z,7.60
2019-05-22T11:20:38.379Z,6.83
2019-05-22T11:23:09.385Z,7.57
2019-05-22T11:25:39.710Z,7.67
2019-05-22T11:28:09.771Z,8.67
2019-05-22T11:30:40.512Z,9.53
2019-05-22T11:33:11.263Z,9.70
2019-05-22T11:35:41.664Z,9.63
2019-05-22T11:38:11.675Z,10.17
2019-05-22T11:40:41.996Z,10.17
2019-05-22T11:43:13.088Z,10.10
2019-05-22T11:45:45.395Z,9.63
2019-05-22T11:48:16.286Z,7.93
2019-05-22T11:50:46.766Z,8.87
2019-05-22T11:53:16.941Z,7.20
2019-05-22T11:55:47.584Z,8.90
2019-05-22T11:58:18.387Z,7.73
2019-05-22T12:00:48.538Z,7.93
2019-05-22T12:03:19.167Z,8.93
2019-05-22T12:05:49.363Z,9.20
2019-05-22T12:08:19.716Z,8.67
2019-05-22T12:10:51.349Z,9.00
2019-05-22T12:13:21.713Z,8.73
2019-05-22T12:15:53.100Z,7.90
2019-05-22T12:18:23.928Z,6.83
2019-05-22T12:20:54.494Z,6.30
2019-05-22T12:23:25.016Z,6.80
2019-05-22T12:25:56.033Z,7.43
2019-05-22T12:28:26.574Z,6.80
2019-05-22T12:30:57.683Z,7.10
2019-05-22T12:33:28.543Z,7.00
2019-05-22T12:35:59.517Z,6.70
2019-05-22T12:38:32.849Z,6.83
2019-05-22T12:41:04.446Z,5.53
2019-05-22T12:43:35.194Z,6.10
2019-05-22T12:46:05.255Z,6.33
2019-05-22T12:48:36.638Z,6.20
2019-05-22T12:51:08.042Z,6.63
2019-05-22T12:53:38.621Z,5.90
2019-05-22T12:56:09.105Z,5.93
2019-05-22T12:58:40.304Z,5.63
2019-05-22T13:01:10.909Z,6.13
2019-05-22T13:03:42.143Z,6.07
2019-05-22T13:06:12.980Z,5.80
2019-05-22T13:08:43.356Z,5.83
2019-05-22T13:11:14.396Z,6.00
2019-05-22T13:13:46.488Z,6.13
2019-05-22T13:16:18.088Z,6.13
2019-05-22T13:18:48.506Z,5.20
2019-05-22T13:21:22.544Z,5.87
2019-05-22T13:23:53.443Z,5.70
2019-05-22T13:26:25.369Z,4.87
2019-05-22T13:28:57.693Z,5.07
2019-05-22T13:31:28.230Z,4.47
2019-05-22T13:34:00.563Z,4.40
2019-05-22T13:36:30.824Z,4.33
2019-05-22T13:39:01.369Z,4.90
2019-05-22T13:41:33.673Z,4.83
2019-05-22T13:44:06.006Z,4.90
2019-05-22T13:46:36.939Z,4.70
2019-05-22T13:49:10.903Z,5.13
2019-05-22T13:51:41.165Z,4.57
2019-05-22T13:54:16.463Z,5.00
2019-05-22T13:56:47.613Z,4.97
2019-05-22T13:59:18.337Z,4.10
2019-05-22T14:01:48.764Z,4.20
2019-05-22T14:04:18.864Z,4.53
2019-05-22T14:06:49.488Z,4.90
2019-05-22T14:09:21.594Z,5.20
2019-05-22T14:11:54.087Z,5.27
2019-05-22T14:14:27.539Z,5.77
2019-05-22T14:16:57.548Z,8.07
2019-05-22T14:19:27.825Z,10.43
2019-05-22T14:21:58.187Z,5.73
2019-05-22T14:24:28.270Z,5.53
2019-05-22T14:26:58.401Z,5.70
2019-05-22T14:29:28.756Z,5.07
2019-05-22T14:31:58.926Z,5.37
2019-05-22T14:34:29.951Z,6.20
2019-05-22T14:37:00.093Z,6.23
2019-05-22T14:39:32.527Z,6.60
2019-05-22T14:42:04.731Z,5.60
2019-05-22T14:44:38.053Z,6.43
2019-05-22T14:47:14.616Z,6.67
2019-05-22T14:49:43.969Z,6.57
2019-05-22T14:52:18.140Z,6.77
2019-05-22T14:54:49.506Z,7.67
2019-05-22T14:57:22.963Z,6.73
2019-05-22T14:59:54.167Z,6.20
2019-05-22T15:02:24.493Z,6.83
2019-05-22T15:05:03.136Z,5.60
2019-05-22T15:07:33.598Z,5.58
2019-05-22T15:10:05.731Z,4.97
2019-05-22T15:12:36.222Z,4.70
2019-05-22T15:15:08.520Z,5.30
2019-05-22T15:17:38.712Z,4.87
2019-05-22T15:20:12.766Z,5.22
2019-05-22T15:22:42.931Z,4.60
2019-05-22T15:25:17.665Z,5.10
2019-05-22T15:27:48.331Z,4.62
2019-05-22T15:30:19.841Z,5.03
2019-05-22T15:32:49.879Z,5.37
2019-05-22T15:35:20.317Z,5.12
2019-05-22T15:37:53.783Z,4.70
2019-05-22T15:40:25.213Z,5.28
2019-05-22T15:42:55.297Z,4.47
2019-05-22T15:45:27.472Z,4.60
2019-05-22T15:48:00.723Z,4.37
2019-05-22T15:50:33.943Z,4.50
2019-05-22T15:53:10.998Z,4.72
2019-05-22T15:55:42.639Z,4.60
2019-05-22T15:58:15.273Z,4.57
2019-05-22T16:00:47.600Z,3.62
2019-05-22T16:03:22.036Z,3.87
2019-05-22T16:05:54.090Z,3.85
2019-05-22T16:08:24.736Z,4.00
2019-05-22T16:10:59.745Z,4.42
2019-05-22T16:13:32.163Z,4.25
2019-05-22T16:16:05.726Z,4.70
2019-05-22T16:18:38.943Z,4.30
2019-05-22T16:21:11.453Z,4.60
2019-05-22T16:23:43.142Z,3.65
2019-05-22T16:26:17.670Z,3.80
2019-05-22T16:28:49.182Z,4.00
2019-05-22T16:31:20.400Z,3.85
2019-05-22T16:33:53.542Z,4.35
2019-05-22T16:36:24.262Z,4.22
2019-05-22T16:38:54.703Z,4.17
2019-05-22T16:41:25.830Z,3.90
2019-05-22T16:43:56.871Z,3.83
2019-05-22T16:46:27.877Z,3.80
2019-05-22T16:48:58.915Z,3.70
2019-05-22T16:51:30.500Z,3.22
2019-05-22T16:54:10.293Z,2.95
2019-05-22T16:56:41.516Z,3.47
2019-05-22T16:59:14.440Z,4.33
2019-05-22T17:01:58.637Z,3.92
2019-05-22T17:04:18.571Z,4.53
2019-05-22T17:06:49.573Z,4.47
2019-05-22T17:09:21.404Z,4.12
2019-05-22T17:11:52.547Z,4.20
2019-05-22T17:14:23.725Z,3.80
2019-05-22T17:16:56.427Z,3.52
2019-05-22T17:19:28.037Z,3.30
2019-05-22T17:21:59.634Z,3.17
2019-05-22T17:24:33.997Z,2.40
2019-05-22T17:27:04.574Z,3.08
2019-05-22T17:29:35.283Z,3.35
2019-05-22T17:32:06.316Z,3.75
2019-05-22T17:34:37.717Z,3.47
2019-05-22T17:37:11.940Z,3.70
2019-05-22T17:39:44.368Z,3.80
2019-05-22T17:42:17.417Z,4.13
2019-05-22T17:44:49.675Z,3.75
2019-05-22T17:47:21.818Z,4.57
2019-05-22T17:49:53.310Z,3.80
2019-05-22T17:52:24.428Z,4.30
2019-05-22T17:54:55.030Z,3.57
2019-05-22T17:57:25.206Z,3.43
2019-05-22T17:59:55.795Z,3.30
2019-05-22T18:02:27.465Z,3.83
2019-05-22T18:04:57.656Z,3.67
2019-05-22T18:07:28.525Z,3.97
2019-05-22T18:10:00.369Z,3.33
2019-05-22T18:12:30.847Z,3.13
2019-05-22T18:15:02.378Z,3.70
2019-05-22T18:17:33.679Z,3.40
2019-05-22T18:20:07.954Z,3.53
2019-05-22T18:22:38.561Z,3.53
2019-05-22T18:25:09.370Z,3.37
2019-05-22T18:27:42.399Z,3.43
2019-05-22T18:30:14.372Z,3.70
2019-05-22T18:32:44.359Z,3.10
2019-05-22T18:35:15.137Z,3.30
2019-05-22T18:37:45.220Z,2.90
2019-05-22T18:40:16.419Z,3.77
2019-05-22T18:42:46.436Z,3.50
2019-05-22T18:45:17.270Z,3.10
2019-05-22T18:47:47.591Z,3.30
2019-05-22T18:50:18.551Z,3.60
2019-05-22T18:52:50.209Z,3.50
2019-05-22T18:55:20.747Z,3.03
2019-05-22T18:57:51.002Z,3.63
2019-05-22T19:00:28.146Z,3.53
2019-05-22T19:02:58.540Z,3.20
2019-05-22T19:05:31.633Z,3.07
2019-05-22T19:08:01.988Z,3.23
2019-05-22T19:10:32.241Z,3.87
2019-05-22T19:13:02.772Z,3.50
2019-05-22T19:15:33.712Z,3.53
2019-05-22T19:18:04.453Z,3.30
2019-05-22T19:20:37.250Z,3.27
2019-05-22T19:23:09.037Z,3.20
2019-05-22T19:25:39.202Z,3.10
2019-05-22T19:28:11.082Z,3.10
2019-05-22T19:30:43.813Z,3.10
2019-05-22T19:33:16.697Z,3.37
2019-05-22T19:35:49.569Z,3.70
2019-05-22T19:38:22.852Z,4.33
2019-05-22T19:40:51.934Z,3.87
2019-05-22T19:43:22.315Z,4.07
2019-05-22T19:45:52.730Z,3.70
2019-05-22T19:48:23.166Z,4.43
2019-05-22T19:50:54.905Z,4.07
2019-05-22T19:53:25.246Z,3.50
2019-05-22T19:55:56.063Z,4.30
2019-05-22T19:58:26.893Z,4.40
2019-05-22T20:00:57.053Z,4.27
2019-05-22T20:03:33.212Z,4.20
2019-05-22T20:06:00.468Z,4.50
2019-05-22T20:08:32.101Z,5.10
2019-05-22T20:11:05.936Z,4.60
2019-05-22T20:13:36.563Z,4.00
2019-05-22T20:16:06.587Z,5.00
2019-05-22T20:18:36.852Z,5.30
2019-05-22T20:21:06.913Z,5.27
2019-05-22T20:23:37.347Z,5.40
2019-05-22T20:26:07.830Z,5.63
2019-05-22T20:28:39.479Z,6.80
2019-05-22T20:31:09.492Z,6.07
2019-05-22T20:33:39.826Z,6.00
2019-05-22T20:36:10.827Z,5.90
2019-05-22T20:38:41.111Z,5.83
2019-05-22T20:41:12.736Z,5.17
2019-05-22T20:43:43.380Z,4.90
2019-05-22T20:46:15.804Z,5.20
2019-05-22T20:48:45.813Z,5.13
2019-05-22T20:51:18.383Z,6.17
2019-05-22T20:53:54.302Z,5.33
2019-05-22T20:56:21.708Z,6.17
2019-05-22T20:58:52.546Z,5.83
2019-05-22T21:01:22.829Z,5.50
2019-05-22T21:03:57.482Z,4.93
2019-05-22T21:06:29.006Z,5.33
2019-05-22T21:09:00.399Z,5.17
2019-05-22T21:11:32.535Z,5.40
2019-05-22T21:14:03.327Z,4.90
2019-05-22T21:16:34.266Z,5.33
2019-05-22T21:19:04.712Z,5.17
2019-05-22T21:21:34.974Z,4.83
2019-05-22T21:24:11.371Z,5.20
2019-05-22T21:26:41.411Z,5.40
2019-05-22T21:29:12.498Z,5.50
2019-05-22T21:31:47.508Z,5.10
2019-05-22T21:34:16.941Z,5.10
2019-05-22T21:36:47.554Z,5.10
2019-05-22T21:39:20.057Z,4.93
2019-05-22T21:41:50.399Z,5.00
2019-05-22T21:44:20.487Z,5.23
2019-05-22T21:46:53.618Z,5.17
2019-05-22T21:49:25.744Z,4.70
2019-05-22T21:51:56.117Z,4.97
2019-05-22T21:54:27.054Z,4.87
2019-05-22T21:56:57.244Z,5.17
2019-05-22T21:59:31.409Z,5.00
2019-05-22T22:02:12.494Z,5.20
2019-05-22T22:04:43.348Z,4.83
2019-05-22T22:07:14.156Z,5.50
2019-05-22T22:09:44.970Z,4.83
2019-05-22T22:12:18.335Z,5.07
2019-05-22T22:14:49.753Z,5.23
2019-05-22T22:17:27.308Z,5.27
2019-05-22T22:19:57.759Z,4.77
2019-05-22T22:22:29.590Z,5.30
2019-05-22T22:24:59.748Z,5.20
2019-05-22T22:27:32.191Z,5.03
2019-05-22T22:30:03.924Z,5.47
2019-05-22T22:32:39.487Z,4.87
2019-05-22T22:35:12.477Z,5.43
2019-05-22T22:37:43.945Z,5.20
2019-05-22T22:40:17.900Z,5.30
2019-05-22T22:42:51.251Z,5.37
2019-05-22T22:45:23.940Z,5.53
2019-05-22T22:47:54.007Z,5.37
2019-05-22T22:50:25.472Z,5.23
2019-05-22T22:52:55.807Z,5.43
2019-05-22T22:55:28.175Z,5.07
2019-05-22T22:58:16.153Z,5.30
2019-05-22T23:00:38.790Z,5.03
2019-05-22T23:03:14.691Z,4.97
2019-05-22T23:05:49.244Z,5.63
2019-05-22T23:08:25.350Z,5.20
2019-05-22T23:10:56.377Z,5.10
2019-05-22T23:13:29.643Z,5.23
2019-05-22T23:16:03.323Z,5.90
2019-05-22T23:18:44.358Z,5.40
2019-05-22T23:21:14.844Z,5.97
2019-05-22T23:23:46.128Z,5.37
2019-05-22T23:26:20.531Z,5.80
2019-05-22T23:28:50.817Z,5.60
2019-05-22T23:31:24.977Z,5.83
2019-05-22T23:33:56.867Z,5.60
2019-05-22T23:36:30.044Z,5.97
2019-05-22T23:39:04.236Z,5.57
2019-05-22T23:41:37.100Z,5.30
2019-05-22T23:44:11.692Z,5.80
2019-05-22T23:46:43.041Z,5.77
2019-05-22T23:49:13.981Z,5.20
2019-05-22T23:51:48.166Z,5.37
2019-05-22T23:54:18.527Z,5.80
2019-05-22T23:56:49.909Z,6.07
2019-05-22T23:59:20.320Z,6.17
